Antelope, Oregon
Current Conditions -  °F | °C
As of 7:55 AM on Sunday 25 Jan 2015 (Local Time) from KS39 Reporting Station
Clear Clear  
Wind Chill:   Ceiling: Unl
Heat Index:   Visibility: 10mi
Dew Point:   Wind: 6mph
Humidity: 76%   Direction: 170°S
Pressure: 30.31"   Gusts: NA
Location:  44.91°N, 120.72°W
Report Text: KS39 251555Z AUTO 17005KT 10SM CLR 06/02 A3031 RMK AO2
Loading
Personal Weather Stations






























Interactive Weather Map New forecast layout! Learn more

10-Day Weather Forecast

Advertisements
Track Severe Weather on mobile